Time;durP1;ratioP1;P1;durP2;ratioP2;P2;SDS_P1;SDS_P2;PMS_P1;PMS_P2;Temp;Humidity;BMP_temperature;BMP_pressure;BME280_temperature;BME280_humidity;BME280_pressure;Samples;Min_cycle;Max_cycle;Signal;HPM_P1;HPM_P2
2023/10/25 00:01:09;;;;;;;5.57;2.50;;;13.60;68.70;15.30;99952.00;;;;5003093;28;20197;-72
2023/10/25 00:03:38;;;;;;;4.28;2.58;;;13.50;68.70;15.30;99948.00;;;;5020626;28;20311;-72
2023/10/25 00:06:05;;;;;;;2.85;2.30;;;13.50;68.70;15.30;99946.00;;;;5003111;28;20266;-72
2023/10/25 00:08:32;;;;;;;3.33;2.42;;;13.50;68.70;15.20;99946.00;;;;5022691;28;20197;-72
2023/10/25 00:11:05;;;;;;;4.95;2.53;;;13.50;68.60;15.20;99949.00;;;;5006327;28;20648;-72
2023/10/25 00:13:32;;;;;;;3.50;2.67;;;13.50;68.60;15.20;99947.00;;;;4996679;28;20194;-72
2023/10/25 00:16:00;;;;;;;4.32;2.45;;;13.50;68.60;15.20;99937.00;;;;5002665;28;20225;-72
2023/10/25 00:18:28;;;;;;;5.53;2.65;;;13.40;68.50;15.20;99936.00;;;;4997951;28;20647;-72
2023/10/25 00:20:56;;;;;;;3.95;2.63;;;13.40;68.50;15.20;99937.00;;;;4998144;28;20580;-72
2023/10/25 00:23:23;;;;;;;2.58;2.38;;;13.40;68.50;15.20;99939.00;;;;5022733;28;20252;-72
2023/10/25 00:25:52;;;;;;;3.35;2.35;;;13.40;68.50;15.10;99934.00;;;;5012251;28;20201;-72
2023/10/25 00:28:19;;;;;;;6.35;2.72;;;13.40;68.50;15.10;99934.00;;;;5007276;28;20296;-72
2023/10/25 00:30:46;;;;;;;3.13;2.35;;;13.40;69.10;15.10;99933.00;;;;5005117;28;20196;-72
2023/10/25 00:33:13;;;;;;;2.67;2.38;;;13.40;68.50;15.10;99922.00;;;;5013852;28;20216;-72
2023/10/25 00:35:41;;;;;;;3.65;2.22;;;13.30;68.40;15.10;99925.00;;;;5016441;28;20559;-73
2023/10/25 00:38:09;;;;;;;4.13;2.30;;;13.30;68.40;15.00;99933.00;;;;5010605;28;20284;-72
2023/10/25 00:40:37;;;;;;;3.38;2.33;;;13.30;68.40;15.00;99935.00;;;;5007326;28;20197;-72
2023/10/25 00:43:15;;;;;;;3.88;2.13;;;13.20;68.40;14.90;99934.00;;;;5004574;28;20255;-72
2023/10/25 00:46:11;;;;;;;3.53;2.38;;;13.20;68.40;14.90;99933.00;;;;5020112;28;20215;-72
2023/10/25 00:48:42;;;;;;;4.68;2.65;;;13.20;68.30;14.90;99928.00;;;;4994556;28;20611;-73
2023/10/25 00:51:13;;;;;;;4.93;2.38;;;13.20;68.40;14.90;99928.00;;;;5001588;28;20198;-72
2023/10/25 00:53:47;;;;;;;2.28;2.08;;;13.20;68.40;14.90;99934.00;;;;4998019;28;20199;-72
2023/10/25 00:56:17;;;;;;;3.10;2.25;;;13.10;68.30;14.80;99929.00;;;;5003560;28;20315;-72
2023/10/25 00:58:50;;;;;;;3.00;2.30;;;13.10;68.30;14.90;99933.00;;;;4998902;28;20292;-72
2023/10/25 01:01:20;;;;;;;2.90;2.40;;;13.10;68.30;14.80;99933.00;;;;5005250;28;20204;-73
2023/10/25 01:03:49;;;;;;;4.28;2.55;;;13.00;68.30;14.80;99932.00;;;;4993252;28;20222;-72
2023/10/25 01:06:17;;;;;;;3.33;3.03;;;13.00;68.30;14.80;99927.00;;;;4993080;28;20198;-72
2023/10/25 01:08:46;;;;;;;3.20;2.35;;;13.00;68.30;14.80;99925.00;;;;5029045;28;20612;-72
2023/10/25 01:11:13;;;;;;;3.15;2.58;;;13.00;68.30;14.80;99928.00;;;;5011451;28;20232;-73
2023/10/25 01:13:41;;;;;;;6.03;3.13;;;13.00;68.30;14.80;99921.00;;;;4995913;28;20206;-72
2023/10/25 01:16:08;;;;;;;4.00;2.42;;;12.90;68.30;14.70;99914.00;;;;5007211;28;20224;-72
2023/10/25 01:18:35;;;;;;;3.17;2.60;;;12.90;68.30;14.70;99908.00;;;;4998644;28;20189;-74
2023/10/25 01:21:02;;;;;;;9.90;2.55;;;12.90;68.30;14.70;99914.00;;;;4993467;28;20189;-72
2023/10/25 01:23:30;;;;;;;3.35;2.17;;;12.90;68.30;14.70;99908.00;;;;5001490;28;20615;-72
2023/10/25 01:25:57;;;;;;;3.53;2.50;;;12.90;68.40;14.70;99906.00;;;;5004585;28;20593;-73
2023/10/25 01:28:24;;;;;;;2.60;2.17;;;12.90;68.40;14.60;99906.00;;;;5021437;28;20691;-72
2023/10/25 01:30:51;;;;;;;4.18;2.33;;;12.80;68.30;14.60;99908.00;;;;4993754;28;20705;-73
2023/10/25 01:33:18;;;;;;;3.42;2.72;;;12.80;68.30;14.60;99905.00;;;;4996784;28;20287;-73
2023/10/25 01:35:45;;;;;;;3.03;2.53;;;12.80;68.20;14.60;99905.00;;;;5012234;28;20226;-73
2023/10/25 01:38:12;;;;;;;2.20;2.00;;;12.80;68.90;14.60;99905.00;;;;5013826;28;20607;-73
2023/10/25 01:40:40;;;;;;;3.30;2.38;;;12.70;68.20;14.50;99906.00;;;;4995563;28;20288;-73
2023/10/25 01:43:07;;;;;;;3.88;2.40;;;12.70;68.20;14.50;99896.00;;;;4995545;28;20573;-73
2023/10/25 01:45:34;;;;;;;3.33;2.50;;;12.70;68.20;14.50;99897.00;;;;4993227;28;20197;-74
2023/10/25 01:48:01;;;;;;;3.22;2.40;;;12.70;68.30;14.50;99888.00;;;;5024748;28;20683;-73
2023/10/25 01:50:28;;;;;;;2.88;2.45;;;12.70;68.20;14.50;99887.00;;;;4999295;28;20193;-73
2023/10/25 01:52:55;;;;;;;3.97;1.95;;;12.60;68.10;14.50;99877.00;;;;5007988;28;20201;-73
2023/10/25 01:55:23;;;;;;;2.75;2.25;;;12.60;68.20;14.40;99880.00;;;;4998871;28;20701;-73
2023/10/25 01:57:51;;;;;;;3.33;2.53;;;12.60;68.20;14.40;99884.00;;;;5008546;28;20280;-72
2023/10/25 02:00:18;;;;;;;3.30;2.38;;;12.60;68.20;14.40;99883.00;;;;5011266;28;20197;-73
2023/10/25 02:02:45;;;;;;;3.20;2.28;;;12.60;68.30;14.40;99874.00;;;;4993728;28;20194;-73
2023/10/25 02:05:12;;;;;;;4.95;2.58;;;12.60;68.30;14.40;99881.00;;;;5017117;28;20231;-73
2023/10/25 02:07:40;;;;;;;5.78;2.72;;;12.50;68.20;14.40;99876.00;;;;4996610;28;20198;-73
2023/10/25 02:10:08;;;;;;;2.30;2.10;;;12.50;68.20;14.30;99878.00;;;;5006233;28;20201;-73
2023/10/25 02:12:35;;;;;;;4.57;2.42;;;12.50;68.20;14.30;99872.00;;;;5014384;28;20280;-73
2023/10/25 02:15:05;;;;;;;3.58;2.53;;;12.40;68.20;14.30;99868.00;;;;5005648;28;20216;-73
2023/10/25 02:17:32;;;;;;;3.70;2.50;;;12.40;68.10;14.30;99875.00;;;;5004349;28;20662;-73
2023/10/25 02:19:59;;;;;;;5.00;2.50;;;12.40;68.10;14.30;99869.00;;;;4997666;28;20193;-73
2023/10/25 02:22:26;;;;;;;4.47;2.90;;;12.40;68.20;14.30;99866.00;;;;5008221;28;20201;-73
2023/10/25 02:24:53;;;;;;;2.83;2.30;;;12.40;68.20;14.20;99859.00;;;;5008256;28;20204;-73
2023/10/25 02:27:20;;;;;;;2.53;2.22;;;12.40;68.20;14.20;99857.00;;;;4996746;28;20274;-73
2023/10/25 02:29:49;;;;;;;2.75;2.42;;;12.40;68.20;14.20;99839.00;;;;4995334;28;20669;-73
2023/10/25 02:32:17;;;;;;;3.08;2.17;;;12.40;68.20;14.20;99841.00;;;;5009278;28;20682;-73
2023/10/25 02:34:44;;;;;;;2.15;1.90;;;12.30;68.20;14.20;99848.00;;;;5024156;28;20744;-73
2023/10/25 02:37:11;;;;;;;3.63;2.35;;;12.30;68.20;14.10;99849.00;;;;5020823;28;20262;-73
2023/10/25 02:39:38;;;;;;;4.78;2.08;;;12.30;68.20;14.10;99834.00;;;;5003550;28;20581;-73
2023/10/25 02:42:05;;;;;;;3.15;2.30;;;12.30;68.20;14.10;99832.00;;;;4993371;28;20281;-73
2023/10/25 02:44:32;;;;;;;5.50;2.15;;;12.30;68.30;14.10;99834.00;;;;4998973;28;20194;-73
2023/10/25 02:46:59;;;;;;;3.00;2.03;;;12.20;68.20;14.10;99834.00;;;;5020739;28;20207;-73
2023/10/25 02:49:28;;;;;;;3.17;2.17;;;12.30;69.00;14.10;99835.00;;;;5030007;28;20195;-73
2023/10/25 02:51:55;;;;;;;2.22;1.75;;;12.20;68.20;14.10;99838.00;;;;5008605;28;20561;-73
2023/10/25 02:54:22;;;;;;;2.95;2.28;;;12.20;68.30;14.10;99839.00;;;;5001198;28;20648;-73
2023/10/25 02:56:49;;;;;;;3.88;2.15;;;12.20;68.30;14.00;99830.00;;;;5006966;28;20231;-73
2023/10/25 02:59:16;;;;;;;3.45;2.15;;;12.20;68.30;14.00;99834.00;;;;5006442;28;20212;-73
2023/10/25 03:01:43;;;;;;;2.15;1.70;;;12.20;68.20;14.00;99837.00;;;;4997774;28;20613;-73
2023/10/25 03:04:10;;;;;;;2.60;2.03;;;12.20;68.30;14.00;99829.00;;;;5000099;28;20591;-73
2023/10/25 03:06:39;;;;;;;2.72;2.03;;;12.20;68.30;14.00;99827.00;;;;5009368;28;20186;-73
2023/10/25 03:09:05;;;;;;;2.95;1.85;;;12.20;68.30;14.00;99822.00;;;;5005526;28;20678;-74
2023/10/25 03:11:32;;;;;;;4.00;1.90;;;12.20;68.30;14.00;99820.00;;;;4994577;28;20198;-73
2023/10/25 03:13:59;;;;;;;2.08;1.88;;;12.20;68.40;14.00;99819.00;;;;5000215;28;20202;-73
2023/10/25 03:16:26;;;;;;;3.60;1.67;;;12.10;68.30;14.00;99809.00;;;;5020504;28;20216;-73
2023/10/25 03:18:53;;;;;;;2.65;1.83;;;12.10;68.30;13.90;99820.00;;;;4997539;28;20193;-73
2023/10/25 03:21:20;;;;;;;5.13;1.95;;;12.10;68.40;14.00;99822.00;;;;5006151;28;20201;-73
2023/10/25 03:23:50;;;;;;;5.22;2.28;;;12.10;68.40;13.90;99823.00;;;;5007328;28;20642;-73
2023/10/25 03:26:17;;;;;;;2.40;1.85;;;12.10;68.50;13.90;99823.00;;;;5006071;28;20224;-73
2023/10/25 03:28:44;;;;;;;2.45;1.50;;;12.10;68.40;13.90;99820.00;;;;5000370;28;20300;-73
2023/10/25 03:31:12;;;;;;;2.33;1.98;;;12.10;68.40;13.90;99820.00;;;;5002881;28;20197;-73
2023/10/25 03:33:39;;;;;;;3.45;1.80;;;12.10;68.40;13.90;99824.00;;;;4995876;28;20280;-74
2023/10/25 03:36:07;;;;;;;3.85;2.10;;;12.10;68.30;13.90;99818.00;;;;5011024;28;20228;-73
2023/10/25 03:38:34;;;;;;;3.63;2.08;;;12.10;68.30;13.90;99809.00;;;;5013464;28;20285;-73
2023/10/25 03:41:05;;;;;;;3.03;1.83;;;12.10;68.40;13.90;99806.00;;;;4999152;28;20204;-73
2023/10/25 03:43:33;;;;;;;2.92;2.03;;;12.10;68.30;13.90;99800.00;;;;4998857;28;20208;-73
2023/10/25 03:46:04;;;;;;;5.28;2.55;;;12.10;68.30;13.80;99800.00;;;;4999912;28;20651;-73
2023/10/25 03:48:32;;;;;;;2.42;1.60;;;12.10;68.40;13.90;99796.00;;;;5016622;28;20293;-73
2023/10/25 03:50:59;;;;;;;2.50;2.30;;;12.10;68.40;13.90;99796.00;;;;4995202;28;20212;-73
2023/10/25 03:53:26;;;;;;;2.22;1.80;;;12.10;68.40;13.90;99788.00;;;;5020249;28;20203;-73
2023/10/25 03:55:55;;;;;;;4.97;2.13;;;12.00;68.30;13.90;99792.00;;;;5009776;28;20665;-73
2023/10/25 03:58:24;;;;;;;4.40;1.85;;;12.10;68.40;13.90;99788.00;;;;5004926;28;20197;-73
2023/10/25 04:00:59;;;;;;;2.55;1.70;;;12.00;68.40;13.80;99786.00;;;;5002014;28;20197;-73
2023/10/25 04:03:26;;;;;;;2.15;1.73;;;12.00;68.40;13.90;99780.00;;;;5005541;28;20696;-73
2023/10/25 04:05:54;;;;;;;2.88;2.03;;;12.00;68.40;13.90;99785.00;;;;5005221;28;20205;-73
2023/10/25 04:08:22;;;;;;;3.22;1.90;;;12.00;68.50;13.90;99784.00;;;;5000954;28;20289;-73
2023/10/25 04:10:53;;;;;;;3.45;2.13;;;12.00;68.50;13.80;99782.00;;;;5002063;28;20209;-73
2023/10/25 04:13:23;;;;;;;2.60;2.15;;;12.00;68.50;13.80;99775.00;;;;5002690;28;20279;-73
2023/10/25 04:15:58;;;;;;;3.90;1.73;;;12.00;68.40;13.80;99775.00;;;;5009925;28;20228;-73
2023/10/25 04:18:27;;;;;;;3.95;2.30;;;12.00;68.50;13.80;99773.00;;;;5014785;28;20193;-73
2023/10/25 04:20:55;;;;;;;2.80;2.28;;;12.00;68.50;13.80;99772.00;;;;5015690;28;20202;-73
2023/10/25 04:23:23;;;;;;;2.28;1.75;;;12.00;68.40;13.80;99755.00;;;;4998347;28;20193;-73
2023/10/25 04:25:51;;;;;;;3.65;2.05;;;12.00;68.40;13.80;99761.00;;;;4999270;28;20672;-72
2023/10/25 04:28:19;;;;;;;4.78;2.38;;;12.00;68.50;13.80;99766.00;;;;4998039;28;20288;-73
2023/10/25 04:30:47;;;;;;;3.53;2.15;;;12.00;68.50;13.80;99763.00;;;;4993953;28;20227;-73
2023/10/25 04:33:15;;;;;;;2.35;1.83;;;12.00;68.50;13.80;99758.00;;;;5002112;28;20642;-72
2023/10/25 04:35:42;;;;;;;3.08;2.00;;;12.00;68.50;13.80;99759.00;;;;4993814;28;20221;-73
2023/10/25 04:38:10;;;;;;;3.90;2.03;;;12.00;68.60;13.80;99763.00;;;;4995304;28;20189;-73
2023/10/25 04:40:37;;;;;;;6.05;2.30;;;12.00;68.70;13.90;99758.00;;;;5005532;28;20205;-73
2023/10/25 04:43:04;;;;;;;2.72;1.98;;;12.00;68.70;13.90;99753.00;;;;5002843;28;20204;-73
2023/10/25 04:45:31;;;;;;;2.95;1.85;;;12.00;68.80;13.90;99747.00;;;;5008053;28;20204;-73
2023/10/25 04:47:59;;;;;;;2.50;2.10;;;12.00;68.80;13.90;99745.00;;;;4994340;28;20655;-73
2023/10/25 04:50:32;;;;;;;3.60;2.20;;;12.00;68.90;13.90;99739.00;;;;5010026;28;20197;-73
2023/10/25 04:52:59;;;;;;;4.95;2.17;;;12.10;69.10;14.00;99734.00;;;;5026792;28;20666;-73
2023/10/25 04:55:29;;;;;;;2.92;2.17;;;12.10;69.10;14.00;99730.00;;;;5007512;28;20848;-74
2023/10/25 04:57:56;;;;;;;3.03;2.13;;;12.10;69.20;14.00;99734.00;;;;4993696;28;20208;-73
2023/10/25 05:00:24;;;;;;;4.28;2.80;;;12.10;69.20;14.00;99726.00;;;;4997925;28;20685;-73
2023/10/25 05:02:51;;;;;;;3.88;2.40;;;12.20;69.40;14.10;99732.00;;;;4995310;28;20572;-73
2023/10/25 05:05:19;;;;;;;2.92;2.45;;;12.20;69.40;14.10;99731.00;;;;5009670;28;20198;-73
2023/10/25 05:07:47;;;;;;;3.90;2.45;;;12.20;69.40;14.10;99731.00;;;;5003582;28;20215;-74
2023/10/25 05:10:15;;;;;;;5.85;2.25;;;12.20;69.40;14.10;99728.00;;;;5000368;28;20208;-74
2023/10/25 05:12:46;;;;;;;3.42;2.20;;;12.30;69.50;14.10;99731.00;;;;5008825;28;20193;-73
2023/10/25 05:15:16;;;;;;;2.75;1.77;;;12.30;69.40;14.20;99717.00;;;;4996282;28;20200;-73
2023/10/25 05:17:45;;;;;;;2.80;1.73;;;12.40;69.50;14.20;99710.00;;;;5009626;28;20709;-73
2023/10/25 05:20:14;;;;;;;3.08;2.03;;;12.40;69.40;14.20;99708.00;;;;5014756;28;20212;-73
2023/10/25 05:22:48;;;;;;;3.08;1.95;;;12.40;69.40;14.20;99717.00;;;;4994300;28;20279;-73
2023/10/25 05:25:17;;;;;;;2.63;2.22;;;12.40;69.40;14.30;99721.00;;;;4998743;28;20197;-73
2023/10/25 05:27:45;;;;;;;4.28;1.92;;;12.50;69.40;14.30;99716.00;;;;5001841;28;20221;-73
2023/10/25 05:30:16;;;;;;;3.92;2.13;;;12.40;69.30;14.30;99711.00;;;;4997138;28;20201;-73
2023/10/25 05:32:46;;;;;;;4.20;2.05;;;12.50;69.40;14.30;99713.00;;;;5004169;28;20655;-73
2023/10/25 05:35:15;;;;;;;3.60;1.92;;;12.50;69.50;14.30;99705.00;;;;4995867;28;20202;-73
2023/10/25 05:37:44;;;;;;;3.10;1.77;;;12.50;69.50;14.30;99705.00;;;;5000546;28;20344;-74
2023/10/25 05:40:13;;;;;;;1.90;1.70;;;12.60;69.50;14.40;99693.00;;;;4990929;28;20201;-73
2023/10/25 05:42:47;;;;;;;4.53;1.85;;;12.60;69.60;14.30;99694.00;;;;4996081;28;20204;-74
2023/10/25 05:45:14;;;;;;;2.85;2.10;;;12.60;69.60;14.40;99690.00;;;;4993241;28;20205;-74
2023/10/25 05:47:42;;;;;;;3.42;2.20;;;12.60;69.60;14.40;99699.00;;;;5005910;28;20202;-74
2023/10/25 05:50:11;;;;;;;2.63;2.03;;;12.60;69.60;14.50;99697.00;;;;4994224;28;20553;-75
2023/10/25 05:52:44;;;;;;;4.15;2.13;;;12.60;70.30;14.50;99688.00;;;;5012279;28;20215;-75
2023/10/25 05:55:15;;;;;;;3.72;1.95;;;12.70;69.60;14.50;99694.00;;;;4999829;28;20193;-76
2023/10/25 05:57:45;;;;;;;3.85;1.75;;;12.70;69.60;14.50;99694.00;;;;4998849;28;20243;-75
2023/10/25 06:00:14;;;;;;;3.53;2.30;;;12.70;69.70;14.60;99684.00;;;;4998976;28;20283;-75
2023/10/25 06:02:45;;;;;;;5.45;2.13;;;12.70;69.70;14.60;99675.00;;;;4996194;28;20193;-76
2023/10/25 06:05:14;;;;;;;6.90;2.15;;;12.80;69.70;14.60;99668.00;;;;5009981;28;20199;-75
2023/10/25 06:07:42;;;;;;;3.70;2.03;;;12.80;69.70;14.60;99666.00;;;;5000565;28;20549;-76
2023/10/25 06:10:12;;;;;;;3.50;2.30;;;12.80;69.70;14.70;99671.00;;;;5002247;28;20229;-75
2023/10/25 06:12:41;;;;;;;7.43;2.40;;;12.80;69.70;14.70;99661.00;;;;4995836;28;20200;-75
2023/10/25 06:15:10;;;;;;;3.53;2.38;;;12.90;69.80;14.70;99663.00;;;;4992769;28;20201;-76
2023/10/25 06:17:37;;;;;;;3.20;2.45;;;12.90;69.80;14.70;99663.00;;;;5007673;28;20225;-74
2023/10/25 06:20:06;;;;;;;5.45;2.38;;;12.90;69.80;14.80;99670.00;;;;4993907;28;20549;-74
2023/10/25 06:22:33;;;;;;;3.60;2.15;;;13.00;69.90;14.80;99661.00;;;;5001287;28;20568;-74
2023/10/25 06:25:00;;;;;;;5.03;2.67;;;13.00;69.90;14.80;99655.00;;;;4993625;28;20209;-74
2023/10/25 06:27:29;;;;;;;4.65;2.70;;;13.00;69.90;14.80;99651.00;;;;4997136;28;20220;-74
2023/10/25 06:29:57;;;;;;;3.17;2.03;;;13.00;70.50;14.90;99666.00;;;;5004795;28;20205;-74
2023/10/25 06:32:24;;;;;;;5.22;2.10;;;13.10;69.90;14.90;99663.00;;;;4997331;28;20286;-74
2023/10/25 06:34:51;;;;;;;3.78;2.03;;;13.10;69.90;14.90;99664.00;;;;5014030;28;20202;-74
2023/10/25 06:37:19;;;;;;;4.15;2.10;;;13.10;69.90;14.90;99660.00;;;;5013581;28;20315;-74
2023/10/25 06:39:47;;;;;;;5.20;2.47;;;13.10;69.90;15.00;99658.00;;;;5002702;28;20275;-74
2023/10/25 06:42:15;;;;;;;3.15;1.92;;;13.20;69.80;15.00;99653.00;;;;5016452;28;20211;-74
2023/10/25 06:44:44;;;;;;;4.38;2.20;;;13.20;69.80;15.00;99658.00;;;;4997920;28;20276;-74
2023/10/25 06:47:13;;;;;;;3.20;2.10;;;13.20;69.80;15.00;99647.00;;;;5022191;28;20519;-74
2023/10/25 06:49:40;;;;;;;2.92;1.65;;;13.20;69.80;15.10;99650.00;;;;5010555;28;20192;-74
2023/10/25 06:52:09;;;;;;;2.45;2.10;;;13.20;69.80;15.10;99648.00;;;;5010263;28;20190;-74
2023/10/25 06:54:37;;;;;;;4.18;2.65;;;13.30;69.90;15.10;99642.00;;;;4993518;28;20188;-74
2023/10/25 06:57:05;;;;;;;2.58;2.13;;;13.30;69.90;15.10;99636.00;;;;5014860;28;20303;-73
2023/10/25 06:59:33;;;;;;;2.90;2.05;;;13.30;69.90;15.10;99637.00;;;;5006311;28;20193;-74
2023/10/25 07:02:28;;;;;;;2.38;2.08;;;13.30;70.50;15.10;99641.00;;;;5009750;28;20189;-74
2023/10/25 07:05:11;;;;;;;3.30;2.38;;;13.40;70.00;15.10;99630.00;;;;5000704;28;20229;-74
2023/10/25 07:07:40;;;;;;;2.88;1.98;;;13.40;69.90;15.20;99628.00;;;;4997168;28;20582;-74
2023/10/25 07:10:09;;;;;;;5.22;1.95;;;13.40;69.90;15.20;99633.00;;;;4998213;28;20205;-74
2023/10/25 07:12:36;;;;;;;3.70;2.20;;;13.40;69.80;15.20;99634.00;;;;4998362;28;20663;-74
2023/10/25 07:15:04;;;;;;;3.75;2.00;;;13.40;69.80;15.30;99626.00;;;;5020385;28;20192;-74
2023/10/25 07:17:33;;;;;;;3.85;2.30;;;13.50;69.90;15.30;99626.00;;;;4997869;28;20834;-74
2023/10/25 07:20:00;;;;;;;2.60;2.08;;;13.50;70.00;15.30;99621.00;;;;4997576;28;20217;-74
2023/10/25 07:22:28;;;;;;;6.28;2.35;;;13.50;69.90;15.30;99621.00;;;;5001749;28;20205;-74
2023/10/25 07:24:57;;;;;;;2.75;2.30;;;13.60;70.00;15.30;99615.00;;;;4998319;28;20218;-75
2023/10/25 07:27:25;;;;;;;3.40;2.22;;;13.60;70.00;15.40;99593.00;;;;5007041;28;20225;-75
2023/10/25 07:29:52;;;;;;;3.90;2.15;;;13.60;70.10;15.40;99604.00;;;;5003805;28;20260;-75
2023/10/25 07:32:20;;;;;;;2.58;1.73;;;13.60;70.00;15.40;99597.00;;;;5001144;28;20185;-76
2023/10/25 07:34:49;;;;;;;3.58;2.33;;;13.60;70.00;15.50;99604.00;;;;5001140;28;20208;-74
2023/10/25 07:37:16;;;;;;;4.28;2.00;;;13.70;70.10;15.50;99596.00;;;;5008980;28;20259;-74
2023/10/25 07:39:44;;;;;;;3.47;2.00;;;13.70;70.10;15.50;99587.00;;;;4999165;28;20208;-74
2023/10/25 07:42:11;;;;;;;4.28;2.30;;;13.70;70.00;15.50;99590.00;;;;4994555;28;20264;-74
2023/10/25 07:44:39;;;;;;;3.92;2.38;;;13.70;70.00;15.60;99595.00;;;;4994674;28;20201;-74
2023/10/25 07:47:07;;;;;;;4.07;2.08;;;13.80;70.10;15.60;99571.00;;;;5003598;28;20197;-75
2023/10/25 07:49:36;;;;;;;3.40;2.10;;;13.80;70.10;15.60;99572.00;;;;4997128;28;20695;-74
2023/10/25 07:52:05;;;;;;;2.75;1.55;;;13.80;70.10;15.60;99576.00;;;;5000569;28;20196;-72
2023/10/25 07:54:32;;;;;;;2.10;1.73;;;13.80;70.10;15.70;99565.00;;;;5003647;28;20197;-74
2023/10/25 07:57:00;;;;;;;3.03;2.15;;;13.90;70.80;15.70;99567.00;;;;5001943;28;20217;-73
2023/10/25 07:59:28;;;;;;;3.45;2.40;;;13.90;70.10;15.70;99557.00;;;;4999657;28;20208;-73
2023/10/25 08:01:57;;;;;;;2.78;1.92;;;13.90;70.00;15.80;99547.00;;;;5005169;28;20193;-73
2023/10/25 08:04:24;;;;;;;3.28;2.67;;;14.00;70.10;15.80;99546.00;;;;4994959;28;20214;-73
2023/10/25 08:06:53;;;;;;;5.22;3.00;;;14.00;70.80;15.80;99540.00;;;;4995289;28;20231;-75
2023/10/25 08:09:23;;;;;;;7.82;2.90;;;14.00;70.10;15.80;99544.00;;;;4998121;28;20548;-75
2023/10/25 08:11:50;;;;;;;3.00;2.33;;;14.00;70.10;15.90;99538.00;;;;4992381;28;20189;-74
2023/10/25 08:14:17;;;;;;;5.25;3.30;;;14.10;70.10;15.90;99545.00;;;;4996558;28;20209;-75
2023/10/25 08:16:44;;;;;;;3.28;2.83;;;14.10;70.20;16.00;99535.00;;;;5009859;28;20530;-75
2023/10/25 08:19:11;;;;;;;3.40;2.65;;;14.10;70.10;16.00;99536.00;;;;4995466;28;20208;-74
2023/10/25 08:21:40;;;;;;;3.63;2.65;;;14.20;70.20;16.00;99531.00;;;;5016490;28;20203;-74
2023/10/25 08:24:08;;;;;;;3.05;2.58;;;14.20;70.10;16.00;99524.00;;;;5000557;28;20562;-73
2023/10/25 08:26:39;;;;;;;5.85;2.90;;;14.20;70.10;16.00;99525.00;;;;5001738;28;20212;-73
2023/10/25 08:29:10;;;;;;;2.97;2.25;;;14.20;70.30;16.00;99520.00;;;;4997382;28;20281;-73
2023/10/25 08:31:37;;;;;;;3.00;2.38;;;14.30;70.00;16.10;99528.00;;;;5012312;28;20200;-74
2023/10/25 08:34:05;;;;;;;2.78;2.42;;;14.30;70.00;16.10;99546.00;;;;5003271;28;20289;-73
2023/10/25 08:36:32;;;;;;;2.85;2.55;;;14.30;70.00;16.10;99532.00;;;;5001453;28;20561;-74
2023/10/25 08:38:59;;;;;;;2.50;2.30;;;14.30;70.00;16.10;99535.00;;;;5019911;28;20198;-74
2023/10/25 08:41:27;;;;;;;4.28;2.58;;;14.40;70.10;16.20;99537.00;;;;4996767;28;20201;-74
2023/10/25 08:43:56;;;;;;;3.65;1.98;;;14.40;70.10;16.20;99531.00;;;;5007151;28;20211;-74
2023/10/25 08:46:25;;;;;;;2.75;2.50;;;14.40;70.10;16.20;99527.00;;;;4994019;28;20194;-72
2023/10/25 08:48:54;;;;;;;6.15;2.70;;;14.40;70.10;16.20;99528.00;;;;5004411;28;20216;-73
2023/10/25 08:51:21;;;;;;;5.45;2.15;;;14.40;70.00;16.30;99528.00;;;;4998681;28;20201;-73
2023/10/25 08:53:52;;;;;;;2.97;2.33;;;14.50;70.10;16.30;99525.00;;;;5003224;28;20198;-74
2023/10/25 08:56:19;;;;;;;2.90;2.40;;;14.50;70.10;16.30;99526.00;;;;4993316;28;20190;-74
2023/10/25 08:58:47;;;;;;;5.00;2.10;;;14.50;70.10;16.40;99519.00;;;;5002985;28;20229;-73
2023/10/25 09:01:15;;;;;;;2.70;1.95;;;14.50;70.10;16.40;99518.00;;;;4997920;28;20486;-73
2023/10/25 09:03:44;;;;;;;3.50;1.80;;;14.60;70.20;16.40;99517.00;;;;5004935;28;20301;-74
2023/10/25 09:06:22;;;;;;;7.30;1.63;;;14.60;70.10;16.40;99516.00;;;;4993978;28;20349;-74
2023/10/25 09:09:02;;;;;;;2.65;1.85;;;14.60;70.10;16.40;99499.00;;;;4998685;28;20642;-74
2023/10/25 09:11:40;;;;;;;2.75;1.48;;;14.60;70.10;16.40;99497.00;;;;4995816;28;20198;-74
2023/10/25 09:14:10;;;;;;;3.60;1.80;;;14.70;70.10;16.50;99497.00;;;;5000621;28;20646;-73
2023/10/25 09:16:42;;;;;;;2.60;1.85;;;14.70;70.00;16.50;99499.00;;;;5015890;28;20200;-72
2023/10/25 09:19:19;;;;;;;3.55;1.58;;;14.70;70.00;16.50;99479.00;;;;5004081;28;20226;-73
2023/10/25 09:21:58;;;;;;;2.70;1.98;;;14.70;70.00;16.50;99486.00;;;;4997995;28;20208;-75
2023/10/25 09:24:25;;;;;;;6.53;1.77;;;14.70;69.90;16.60;99490.00;;;;5001714;28;20518;-75
2023/10/25 09:26:55;;;;;;;4.65;1.77;;;14.80;70.00;16.60;99486.00;;;;5001883;28;20220;-74
2023/10/25 09:29:26;;;;;;;2.30;1.75;;;14.80;69.90;16.60;99471.00;;;;5004364;28;20220;-75
2023/10/25 09:32:06;;;;;;;4.00;1.63;;;14.80;69.80;16.50;99475.00;;;;4998940;28;20212;-75
2023/10/25 09:34:36;;;;;;;1.85;1.65;;;14.80;69.70;16.60;99479.00;;;;5013485;28;20192;-74
2023/10/25 09:37:14;;;;;;;1.70;1.58;;;14.80;69.70;16.50;99485.00;;;;4995725;28;20197;-75
2023/10/25 09:39:41;;;;;;;3.05;1.73;;;14.80;69.70;16.60;99478.00;;;;4998178;28;20201;-75
2023/10/25 09:42:12;;;;;;;3.30;1.75;;;14.80;69.60;16.60;99467.00;;;;5003909;28;20215;-75
2023/10/25 09:44:47;;;;;;;4.35;2.00;;;14.80;69.70;16.60;99469.00;;;;5003337;28;20197;-76
2023/10/25 09:47:18;;;;;;;3.60;2.40;;;14.80;69.70;16.60;99454.00;;;;5004957;28;20292;-76
2023/10/25 09:49:53;;;;;;;2.60;2.17;;;14.90;69.80;16.60;99452.00;;;;5001244;28;20225;-76
2023/10/25 09:52:26;;;;;;;3.17;2.53;;;14.80;69.70;16.70;99447.00;;;;4991927;28;20201;-76
2023/10/25 09:55:03;;;;;;;5.68;2.17;;;14.90;69.80;16.60;99449.00;;;;4994246;28;20738;-75
2023/10/25 09:57:32;;;;;;;3.78;1.77;;;14.90;69.70;16.70;99449.00;;;;4995041;28;20283;-76
2023/10/25 10:00:02;;;;;;;4.60;1.70;;;14.90;69.70;16.70;99453.00;;;;4996973;28;20211;-76
2023/10/25 10:02:45;;;;;;;2.53;1.73;;;14.90;69.70;16.60;99442.00;;;;4993938;28;20197;-75
2023/10/25 10:05:27;;;;;;;2.92;1.98;;;14.90;69.70;16.60;99434.00;;;;4990224;28;20201;-75
2023/10/25 10:08:04;;;;;;;3.25;2.45;;;14.90;69.70;16.70;99437.00;;;;4996162;28;20201;-76
2023/10/25 10:10:40;;;;;;;4.60;2.17;;;14.90;69.60;16.70;99449.00;;;;4999682;28;20206;-76
2023/10/25 10:13:16;;;;;;;2.65;2.03;;;14.90;69.60;16.70;99439.00;;;;5002024;28;20212;-76
2023/10/25 10:16:02;;;;;;;2.70;1.88;;;15.00;69.60;16.60;99437.00;;;;4999675;28;20205;-76
2023/10/25 10:18:33;;;;;;;3.17;2.22;;;14.90;69.60;16.70;99428.00;;;;5003506;28;20221;-76
2023/10/25 10:21:02;;;;;;;3.38;2.35;;;14.90;69.50;16.70;99428.00;;;;5005519;28;20204;-76
2023/10/25 10:23:38;;;;;;;3.30;2.22;;;14.90;69.60;16.70;99426.00;;;;5004010;28;20651;-75
2023/10/25 10:26:07;;;;;;;3.15;2.72;;;15.00;69.60;16.80;99422.00;;;;4995897;28;20212;-76
2023/10/25 10:28:42;;;;;;;5.10;2.80;;;15.00;69.70;16.70;99419.00;;;;5003962;28;20662;-76
2023/10/25 10:31:11;;;;;;;4.38;2.33;;;15.00;69.70;16.80;99416.00;;;;5002645;28;20200;-76
2023/10/25 10:33:48;;;;;;;3.13;2.50;;;15.00;69.80;16.70;99403.00;;;;4989583;28;20212;-76
2023/10/25 10:36:26;;;;;;;5.13;2.63;;;15.00;69.80;16.70;99398.00;;;;4997656;28;20580;-76
2023/10/25 10:39:13;;;;;;;6.15;2.63;;;15.00;69.80;16.70;99394.00;;;;4996771;28;20609;-76
2023/10/25 10:41:40;;;;;;;2.90;2.47;;;15.00;69.90;16.80;99391.00;;;;4993768;28;20284;-76
2023/10/25 10:44:07;;;;;;;3.63;2.17;;;15.10;69.90;16.90;99386.00;;;;4996033;28;20237;-77
2023/10/25 10:46:52;;;;;;;3.38;2.65;;;15.10;69.90;16.80;99381.00;;;;4995530;28;20216;-76
2023/10/25 10:49:21;;;;;;;3.55;2.17;;;15.10;70.00;16.90;99380.00;;;;4991950;28;20882;-76
2023/10/25 10:51:49;;;;;;;4.47;2.67;;;15.10;70.00;17.00;99382.00;;;;5007484;28;20196;-76
2023/10/25 10:54:16;;;;;;;2.40;2.20;;;15.10;69.90;17.00;99382.00;;;;5002881;28;20205;-76
2023/10/25 10:56:44;;;;;;;5.55;2.40;;;15.20;69.90;17.00;99382.00;;;;5013743;28;20200;-76
2023/10/25 10:59:11;;;;;;;3.17;2.40;;;15.20;69.90;17.00;99377.00;;;;5007947;28;20231;-76
2023/10/25 11:01:38;;;;;;;3.80;2.30;;;15.20;69.90;17.00;99370.00;;;;4994962;28;20198;-76
2023/10/25 11:04:07;;;;;;;3.40;2.25;;;15.20;69.90;17.00;99364.00;;;;4993066;28;20231;-76